Time;durP1;ratioP1;P1;durP2;ratioP2;P2;SDS_P1;SDS_P2;PMS_P1;PMS_P2;Temp;Humidity;BMP_temperature;BMP_pressure;BME280_temperature;BME280_humidity;BME280_pressure;Samples;Min_cycle;Max_cycle;Signal;HPM_P1;HPM_P2
2021/12/09 00:00:16;;;;;;;80.57;47.08;;;;;;;-3.36;100.00;98728.38;5052771;28;20506;-80
2021/12/09 00:02:42;;;;;;;85.50;45.00;;;;;;;-3.51;100.00;98714.88;5052174;28;20029;-80
2021/12/09 00:05:14;;;;;;;80.65;43.75;;;;;;;-3.44;100.00;98728.41;5059939;28;20032;-80
2021/12/09 00:07:42;;;;;;;82.85;46.13;;;;;;;-3.38;100.00;98727.53;5060952;28;20024;-80
2021/12/09 00:10:09;;;;;;;85.80;44.70;;;;;;;-3.42;100.00;98716.50;5059674;28;20025;-80
2021/12/09 00:12:35;;;;;;;79.93;41.63;;;;;;;-3.48;100.00;98703.00;5061125;28;20028;-80
2021/12/09 00:15:01;;;;;;;85.72;46.88;;;;;;;-3.38;100.00;98717.34;5061125;28;20029;-80
2021/12/09 00:17:26;;;;;;;70.63;41.60;;;;;;;-3.40;100.00;98702.09;5041120;28;20084;-80
2021/12/09 00:19:51;;;;;;;71.97;40.65;;;;;;;-3.42;100.00;98698.69;5061350;28;20017;-80
2021/12/09 00:22:17;;;;;;;70.28;39.67;;;;;;;-3.49;100.00;98691.97;5042171;28;20383;-80
2021/12/09 00:24:43;;;;;;;80.72;41.10;;;;;;;-3.51;100.00;98679.22;5059474;28;20024;-80
2021/12/09 00:27:08;;;;;;;82.25;42.90;;;;;;;-3.40;100.00;98693.63;5065244;28;20100;-80
2021/12/09 00:29:34;;;;;;;82.32;45.25;;;;;;;-3.40;100.00;98686.81;5061062;28;20039;-80
2021/12/09 00:31:59;;;;;;;65.82;36.45;;;;;;;-3.49;100.00;98679.25;5060688;28;20021;-80
2021/12/09 00:34:31;;;;;;;73.13;39.72;;;;;;;-3.41;100.00;98695.31;5040941;28;20039;-80
2021/12/09 00:37:16;;;;;;;74.03;38.95;;;;;;;-3.47;100.00;98677.50;5060471;28;20460;-80
2021/12/09 00:39:43;;;;;;;86.88;48.15;;;;;;;-3.38;100.00;98672.38;5061111;28;20487;-80
2021/12/09 00:42:09;;;;;;;80.78;43.33;;;;;;;-3.31;100.00;98686.75;5041344;28;20025;-80
2021/12/09 00:44:35;;;;;;;83.18;45.22;;;;;;;-3.30;100.00;98685.88;5060700;28;20028;-80
2021/12/09 00:47:01;;;;;;;84.38;44.72;;;;;;;-3.36;100.00;98664.72;4999336;28;20493;-81
2021/12/09 00:49:30;;;;;;;86.38;47.53;;;;;;;-3.49;100.00;98651.25;4997706;28;20046;-79
2021/12/09 00:51:55;;;;;;;90.28;48.88;;;;;;;-3.49;100.00;98648.69;4998570;28;20461;-80
2021/12/09 00:54:21;;;;;;;87.35;46.80;;;;;;;-3.45;100.00;98654.63;4998985;28;20041;-80
2021/12/09 00:56:46;;;;;;;92.68;49.22;;;;;;;-3.41;100.00;98674.06;4997045;28;20849;-80
2021/12/09 00:59:12;;;;;;;90.78;49.85;;;;;;;-3.54;100.00;98660.56;4999420;28;20556;-80
2021/12/09 01:01:38;;;;;;;87.60;47.97;;;;;;;-3.49;100.00;98675.84;4997915;28;20045;-81
2021/12/09 01:04:03;;;;;;;85.13;49.20;;;;;;;-3.48;100.00;98672.44;4997404;28;20506;-80
2021/12/09 01:06:29;;;;;;;91.97;49.78;;;;;;;-3.56;100.00;98667.41;4982195;28;20214;-80
2021/12/09 01:08:54;;;;;;;98.22;51.35;;;;;;;-3.51;100.00;98674.13;4997099;28;20162;-80
2021/12/09 01:11:19;;;;;;;87.75;48.55;;;;;;;-3.55;100.00;98669.91;4999453;28;20036;-80
2021/12/09 01:13:45;;;;;;;95.18;50.63;;;;;;;-3.54;100.00;98661.44;4997285;28;20133;-80
2021/12/09 01:16:11;;;;;;;93.13;50.28;;;;;;;-3.51;100.00;98679.22;4989469;28;20073;-80
2021/12/09 01:18:38;;;;;;;87.10;47.55;;;;;;;-3.58;100.00;98666.53;5036793;28;20048;-81
2021/12/09 01:21:04;;;;;;;82.45;45.95;;;;;;;-3.47;100.00;98680.06;5062749;28;20086;-81
2021/12/09 01:23:29;;;;;;;85.50;46.63;;;;;;;-3.49;100.00;98674.16;5059514;28;20024;-80
2021/12/09 01:26:03;;;;;;;88.60;46.25;;;;;;;-3.37;100.00;98698.66;5043893;28;20070;-80
2021/12/09 01:28:32;;;;;;;92.55;51.72;;;;;;;-3.47;100.00;98676.66;5061684;28;20070;-80
2021/12/09 01:31:02;;;;;;;77.40;43.17;;;;;;;-3.44;100.00;98676.66;5042125;28;20024;-80
2021/12/09 01:33:32;;;;;;;86.95;47.22;;;;;;;-3.40;100.00;98683.44;5059848;28;20052;-80
2021/12/09 01:35:58;;;;;;;85.18;46.47;;;;;;;-3.42;100.00;98678.31;5059998;28;20086;-80
2021/12/09 01:38:27;;;;;;;83.03;47.47;;;;;;;-3.41;100.00;98679.16;5059291;28;20029;-80
2021/12/09 01:40:52;;;;;;;86.07;43.40;;;;;;;-3.41;100.00;98674.06;5042538;28;20028;-81
2021/12/09 01:43:18;;;;;;;77.93;45.92;;;;;;;-3.52;100.00;98653.78;5059255;28;20102;-80
2021/12/09 01:45:43;;;;;;;74.18;42.25;;;;;;;-3.52;100.00;98654.63;5060560;28;20119;-80
2021/12/09 01:48:09;;;;;;;75.70;41.63;;;;;;;-3.48;100.00;98650.38;5064260;28;20112;-80
2021/12/09 01:50:35;;;;;;;98.85;54.28;;;;;;;-3.36;100.00;98673.22;5071321;28;20078;-80
2021/12/09 01:53:03;;;;;;;84.22;48.53;;;;;;;-3.35;100.00;98684.25;5074943;28;20380;-80
2021/12/09 01:55:30;;;;;;;79.75;44.05;;;;;;;-3.37;100.00;98699.53;5074693;28;20029;-80
2021/12/09 01:57:56;;;;;;;81.15;43.78;;;;;;;-3.37;100.00;98684.25;5074445;28;20029;-80
2021/12/09 02:00:26;;;;;;;88.78;48.58;;;;;;;-3.33;100.00;98705.44;5074545;28;20104;-80
2021/12/09 02:02:52;;;;;;;77.13;44.67;;;;;;;-3.36;100.00;98701.22;5056276;28;20028;-80
2021/12/09 02:05:18;;;;;;;79.15;44.25;;;;;;;-3.37;100.00;98703.75;5074517;28;20387;-80
2021/12/09 02:07:44;;;;;;;76.43;39.72;;;;;;;-3.30;100.00;98716.44;5064508;28;20507;-80
2021/12/09 02:10:13;;;;;;;79.60;43.05;;;;;;;-3.35;100.00;98702.06;5064187;28;20052;-79
2021/12/09 02:12:38;;;;;;;80.95;44.17;;;;;;;-3.31;100.00;98712.22;5046648;28;20056;-80
2021/12/09 02:15:05;;;;;;;82.78;42.42;;;;;;;-3.20;100.00;98713.84;5062080;28;20157;-80
2021/12/09 02:17:32;;;;;;;75.72;40.53;;;;;;;-3.22;100.00;98697.75;5063773;28;20037;-80
2021/12/09 02:20:00;;;;;;;80.30;43.35;;;;;;;-3.17;100.00;98701.94;5062955;28;20020;-77
2021/12/09 02:22:28;;;;;;;77.38;42.03;;;;;;;-3.20;100.00;98699.44;5062164;28;20032;-80
2021/12/09 02:24:54;;;;;;;77.72;41.47;;;;;;;-3.17;100.00;98689.19;5044774;28;20044;-77
2021/12/09 02:27:22;;;;;;;72.63;38.20;;;;;;;-3.16;100.00;98697.69;5063452;28;20032;-77
2021/12/09 02:29:48;;;;;;;72.32;42.83;;;;;;;-3.20;100.00;98696.00;5064291;28;20016;-79
2021/12/09 02:32:13;;;;;;;77.32;42.10;;;;;;;-3.23;100.00;98699.44;5062810;28;20100;-79
2021/12/09 02:34:38;;;;;;;63.33;36.38;;;;;;;-3.21;100.00;98707.91;5064643;28;20025;-77
2021/12/09 02:37:04;;;;;;;81.88;43.97;;;;;;;-3.23;100.00;98701.97;5062298;28;20025;-77
2021/12/09 02:39:30;;;;;;;75.93;40.97;;;;;;;-3.26;100.00;98681.63;5064072;28;20023;-77
2021/12/09 02:41:56;;;;;;;68.22;37.08;;;;;;;-3.19;100.00;98696.03;5063199;28;20025;-77
2021/12/09 02:44:23;;;;;;;75.38;41.03;;;;;;;-3.23;100.00;98671.44;5044333;28;20036;-77
2021/12/09 02:46:53;;;;;;;70.55;39.00;;;;;;;-3.11;100.00;98698.53;5062354;28;20082;-77
2021/12/09 02:49:21;;;;;;;74.45;40.88;;;;;;;-3.08;100.00;98711.22;5047082;28;20112;-79
2021/12/09 02:51:48;;;;;;;74.03;44.45;;;;;;;-3.13;100.00;98695.97;5061952;28;20096;-77
2021/12/09 02:54:16;;;;;;;71.88;40.15;;;;;;;-3.08;100.00;98713.75;5063236;28;20107;-78
2021/12/09 02:56:44;;;;;;;68.75;39.63;;;;;;;-3.11;100.00;98711.25;5063373;28;20031;-77
2021/12/09 02:59:11;;;;;;;76.43;42.20;;;;;;;-3.08;100.00;98716.31;5062177;28;20025;-77
2021/12/09 03:01:46;;;;;;;65.50;37.38;;;;;;;-3.15;100.00;98694.31;5062687;28;20105;-83
2021/12/09 03:04:12;;;;;;;69.30;37.78;;;;;;;-3.04;100.00;98707.78;5062598;28;20017;-79
2021/12/09 03:06:41;;;;;;;68.80;40.45;;;;;;;-3.08;100.00;98691.66;5059496;28;20035;-78
2021/12/09 03:09:15;;;;;;;67.22;38.50;;;;;;;-3.00;100.00;98706.91;5036887;28;20017;-81
2021/12/09 03:11:43;;;;;;;74.00;41.65;;;;;;;-3.17;100.00;98676.47;5070552;28;20115;-78
2021/12/09 03:14:09;;;;;;;71.13;39.65;;;;;;;-2.98;100.00;98705.22;5055295;28;20501;-80
2021/12/09 03:16:34;;;;;;;71.07;41.25;;;;;;;-3.11;100.00;98683.25;5052382;28;20056;-79
2021/12/09 03:19:07;;;;;;;75.78;45.28;;;;;;;-3.04;100.00;98695.88;5044719;28;20017;-80
2021/12/09 03:21:35;;;;;;;76.07;41.13;;;;;;;-3.18;100.00;98679.88;5062576;28;20391;-80
2021/12/09 03:24:03;;;;;;;78.13;40.97;;;;;;;-3.19;100.00;98680.75;5059554;28;20020;-80
2021/12/09 03:26:33;;;;;;;82.47;44.15;;;;;;;-3.16;100.00;98682.41;5034726;28;20496;-80
2021/12/09 03:29:04;;;;;;;72.90;39.50;;;;;;;-3.21;100.00;98671.41;5061707;28;20017;-80
2021/12/09 03:31:30;;;;;;;68.40;37.95;;;;;;;-3.10;100.00;98680.66;5061698;28;20119;-80
2021/12/09 03:33:57;;;;;;;77.80;41.20;;;;;;;-3.08;100.00;98695.94;5061817;28;20475;-80
2021/12/09 03:36:26;;;;;;;71.85;40.58;;;;;;;-3.11;100.00;98689.16;5063015;28;20025;-80
2021/12/09 03:38:51;;;;;;;72.47;42.28;;;;;;;-3.16;100.00;98668.00;5061920;28;20013;-80
2021/12/09 03:41:17;;;;;;;102.20;51.55;;;;;;;-3.07;100.00;98678.09;5061718;28;20036;-80
2021/12/09 03:43:42;;;;;;;139.98;85.82;;;;;;;-3.03;100.00;98681.47;5045056;28;20059;-80
2021/12/09 03:46:07;;;;;;;142.80;75.57;;;;;;;-3.05;100.00;98665.34;5061593;28;20028;-80
2021/12/09 03:48:33;;;;;;;313.35;153.70;;;;;;;-3.01;100.00;98677.19;5062117;28;20475;-80
2021/12/09 03:50:59;;;;;;;918.85;525.72;;;;;;;-3.08;100.00;98666.19;5062322;28;20087;-80
2021/12/09 03:53:25;;;;;;;178.95;108.75;;;;;;;-3.06;100.00;98671.31;5043152;28;20353;-80
2021/12/09 03:55:51;;;;;;;91.28;50.83;;;;;;;-3.20;100.00;98652.72;5062256;28;20024;-80
2021/12/09 03:58:18;;;;;;;78.80;42.65;;;;;;;-3.07;100.00;98664.53;5062403;28;20500;-80
2021/12/09 04:00:44;;;;;;;101.25;61.13;;;;;;;-3.09;100.00;98661.13;5042561;28;20540;-80
2021/12/09 04:03:10;;;;;;;89.30;48.20;;;;;;;-3.18;100.00;98661.22;5044606;28;20381;-80
2021/12/09 04:05:36;;;;;;;353.35;172.70;;;;;;;-3.19;100.00;98664.63;5052113;28;20037;-80
2021/12/09 04:08:03;;;;;;;114.82;63.90;;;;;;;-3.24;100.00;98666.31;5053847;28;20089;-80
2021/12/09 04:10:29;;;;;;;84.93;49.80;;;;;;;-3.25;100.00;98675.66;5071408;28;20356;-80
2021/12/09 04:12:55;;;;;;;93.07;56.30;;;;;;;-3.10;100.00;98703.59;5053898;28;20048;-80
2021/12/09 04:15:21;;;;;;;76.20;41.72;;;;;;;-3.12;100.00;98694.25;5049205;28;20032;-80
2021/12/09 04:17:46;;;;;;;79.97;45.20;;;;;;;-3.06;100.00;98707.81;5032339;28;20515;-80
2021/12/09 04:20:12;;;;;;;88.15;46.47;;;;;;;-3.14;100.00;98693.44;5043334;28;20032;-79
2021/12/09 04:22:37;;;;;;;82.32;46.22;;;;;;;-3.01;100.00;98716.25;5021350;28;20033;-79
2021/12/09 04:25:05;;;;;;;89.15;46.42;;;;;;;-3.03;100.00;98712.03;5039403;28;20037;-80
2021/12/09 04:27:30;;;;;;;78.88;44.40;;;;;;;-3.01;100.00;98700.97;5037322;28;20026;-80
2021/12/09 04:29:55;;;;;;;74.47;43.85;;;;;;;-3.15;100.00;98682.41;5029201;28;20044;-79
2021/12/09 04:32:21;;;;;;;83.38;46.85;;;;;;;-3.09;100.00;98690.00;5029482;28;20043;-80
2021/12/09 04:34:47;;;;;;;87.93;51.65;;;;;;;-3.01;100.00;98705.22;5029188;28;20042;-80
2021/12/09 04:37:14;;;;;;;84.30;46.33;;;;;;;-3.09;100.00;98684.91;5012797;28;20119;-80
2021/12/09 04:39:40;;;;;;;83.53;49.08;;;;;;;-3.03;100.00;98687.41;5029325;28;20033;-80
2021/12/09 04:42:06;;;;;;;83.13;48.80;;;;;;;-3.05;100.00;98691.66;5029354;28;20481;-80
2021/12/09 04:44:32;;;;;;;88.40;52.25;;;;;;;-3.12;100.00;98679.84;5012804;28;20052;-80
2021/12/09 04:47:00;;;;;;;78.90;44.47;;;;;;;-3.08;100.00;98704.41;5045991;28;20492;-80
2021/12/09 04:49:26;;;;;;;91.13;48.70;;;;;;;-3.10;100.00;98693.41;5051643;28;20021;-80
2021/12/09 04:51:52;;;;;;;74.97;42.47;;;;;;;-3.09;100.00;98694.25;5033657;28;20064;-80
2021/12/09 04:54:17;;;;;;;87.18;50.13;;;;;;;-3.08;100.00;98698.47;5051665;28;20531;-80
2021/12/09 04:56:43;;;;;;;83.93;46.88;;;;;;;-3.04;100.00;98703.53;5051269;28;20033;-80
2021/12/09 04:59:08;;;;;;;81.22;45.15;;;;;;;-3.01;100.00;98703.53;5051690;28;20029;-81
2021/12/09 05:01:34;;;;;;;77.45;42.53;;;;;;;-3.10;100.00;98692.56;5051510;28;20056;-80
2021/12/09 05:04:00;;;;;;;77.25;45.40;;;;;;;-3.00;100.00;98699.25;5051281;28;20029;-80
2021/12/09 05:06:26;;;;;;;91.20;50.95;;;;;;;-2.98;100.00;98699.28;5051731;28;20028;-80
2021/12/09 05:08:52;;;;;;;319.75;123.95;;;;;;;-3.02;100.00;98696.75;5051228;28;20052;-80
2021/12/09 05:14:05;;;;;;;82.85;44.75;;;;;;;-3.04;100.00;98715.44;5051188;28;20041;-80
2021/12/09 05:16:31;;;;;;;87.82;47.95;;;;;;;-3.06;100.00;98704.41;5033156;28;20044;-80
2021/12/09 05:18:58;;;;;;;90.75;51.03;;;;;;;-3.12;100.00;98690.03;5051516;28;20488;-80
2021/12/09 05:21:29;;;;;;;87.22;49.35;;;;;;;-3.15;100.00;98682.41;5053792;28;20033;-80
2021/12/09 05:23:58;;;;;;;82.95;45.95;;;;;;;-3.08;100.00;98693.38;5036856;28;20025;-80
2021/12/09 05:26:29;;;;;;;106.40;55.60;;;;;;;-3.01;100.00;98695.88;5037275;28;20502;-80
2021/12/09 05:28:57;;;;;;;303.20;117.45;;;;;;;-3.06;100.00;98676.41;5054928;28;20112;-80
2021/12/09 05:34:08;;;;;;;98.20;49.85;;;;;;;-3.08;100.00;98693.38;5055412;28;20148;-80
2021/12/09 05:36:34;;;;;;;94.72;48.60;;;;;;;-2.99;100.00;98697.56;5054977;28;20445;-80
2021/12/09 05:39:00;;;;;;;93.00;50.13;;;;;;;-3.07;100.00;98695.94;5054781;28;20046;-80
2021/12/09 05:41:25;;;;;;;88.07;46.47;;;;;;;-2.99;100.00;98687.38;5036894;28;20032;-80
2021/12/09 05:43:50;;;;;;;86.72;49.08;;;;;;;-2.98;100.00;98707.75;5055162;28;20025;-80
2021/12/09 05:46:16;;;;;;;80.55;44.60;;;;;;;-3.07;100.00;98701.03;5055072;28;20076;-80
2021/12/09 05:48:42;;;;;;;98.03;54.15;;;;;;;-2.95;100.00;98717.94;5036916;28;20120;-80
2021/12/09 05:51:07;;;;;;;95.50;53.80;;;;;;;-3.04;100.00;98698.44;5036732;28;20035;-80
2021/12/09 05:53:33;;;;;;;119.97;57.67;;;;;;;-2.99;100.00;98705.19;5054687;28;20029;-80
2021/12/09 05:55:58;;;;;;;98.75;51.70;;;;;;;-3.01;100.00;98693.34;5054441;28;20036;-84
2021/12/09 05:58:24;;;;;;;92.55;48.58;;;;;;;-2.93;100.00;98706.00;5036732;28;20017;-83
2021/12/09 06:00:52;;;;;;;85.47;48.65;;;;;;;-2.97;100.00;98694.16;5036430;28;20369;-83
2021/12/09 06:03:19;;;;;;;99.30;54.88;;;;;;;-2.88;100.00;98694.06;5054671;28;20106;-83
2021/12/09 06:05:45;;;;;;;80.03;45.20;;;;;;;-2.78;100.00;98707.63;5036448;28;20037;-83
2021/12/09 06:08:10;;;;;;;86.93;47.05;;;;;;;-2.75;100.00;98694.81;5036562;28;20032;-83
2021/12/09 06:10:37;;;;;;;78.05;42.53;;;;;;;-2.79;100.00;98683.81;5036410;28;20365;-83
2021/12/09 06:13:03;;;;;;;79.38;44.63;;;;;;;-2.64;100.00;98710.03;5036560;28;20051;-85
2021/12/09 06:15:29;;;;;;;137.90;75.85;;;;;;;-2.65;100.00;98705.81;5054269;28;20040;-85
2021/12/09 06:17:54;;;;;;;134.77;65.15;;;;;;;-2.69;100.00;98699.88;5036282;28;20029;-85
2021/12/09 06:20:20;;;;;;;111.75;54.55;;;;;;;-2.61;100.00;98695.56;5036541;28;20468;-85
2021/12/09 06:22:45;;;;;;;80.43;43.92;;;;;;;-2.67;100.00;98695.59;5035981;28;20025;-85
2021/12/09 06:25:17;;;;;;;100.78;54.83;;;;;;;-2.58;100.00;98700.63;5036253;28;20036;-85
2021/12/09 06:27:43;;;;;;;83.57;47.33;;;;;;;-2.66;100.00;98681.16;5036358;28;20461;-85
2021/12/09 06:30:09;;;;;;;91.85;49.78;;;;;;;-2.58;100.00;98690.41;5036093;28;20052;-85
2021/12/09 06:32:34;;;;;;;80.20;43.20;;;;;;;-2.55;100.00;98694.66;5035317;28;20083;-85
2021/12/09 06:35:00;;;;;;;95.20;52.15;;;;;;;-2.56;100.00;98682.78;4991803;28;20038;-85
2021/12/09 06:37:25;;;;;;;81.05;46.88;;;;;;;-2.59;100.00;98672.59;4975836;28;20044;-85
2021/12/09 06:39:50;;;;;;;92.97;49.55;;;;;;;-2.46;100.00;98706.47;4975604;28;20470;-85
2021/12/09 06:42:17;;;;;;;83.70;44.47;;;;;;;-2.49;100.00;98714.97;4975994;28;20049;-85
2021/12/09 06:44:44;;;;;;;77.22;43.08;;;;;;;-2.48;100.00;98731.16;4992227;28;20130;-85
2021/12/09 06:47:10;;;;;;;83.05;45.75;;;;;;;-2.51;100.00;98724.34;4975802;28;20085;-80
2021/12/09 06:49:36;;;;;;;83.53;45.67;;;;;;;-2.48;100.00;98736.25;4975797;28;20077;-80
2021/12/09 06:52:02;;;;;;;78.57;43.10;;;;;;;-2.56;100.00;98737.16;4991858;28;20113;-80
2021/12/09 06:54:28;;;;;;;89.05;48.88;;;;;;;-2.49;100.00;98752.38;4991938;28;20046;-80
2021/12/09 06:56:53;;;;;;;76.45;42.65;;;;;;;-2.52;100.00;98753.28;4991665;28;20026;-80
2021/12/09 06:59:19;;;;;;;75.72;42.20;;;;;;;-2.62;100.00;98739.72;4991867;28;20462;-80
2021/12/09 07:01:44;;;;;;;77.50;41.03;;;;;;;-2.49;100.00;98755.78;4991531;28;20035;-79
2021/12/09 07:04:09;;;;;;;74.22;42.78;;;;;;;-2.57;100.00;98737.16;4991657;28;20048;-79
2021/12/09 07:06:36;;;;;;;71.65;41.88;;;;;;;-2.57;100.00;98740.56;5037354;28;20037;-79
2021/12/09 07:09:04;;;;;;;76.10;44.38;;;;;;;-2.54;100.00;98752.41;5053517;28;20070;-79
2021/12/09 07:11:31;;;;;;;73.10;39.63;;;;;;;-2.74;100.00;98727.09;5035504;28;20530;-80
2021/12/09 07:13:56;;;;;;;73.20;41.67;;;;;;;-2.51;100.00;98783.00;5052916;28;20112;-79
2021/12/09 07:16:22;;;;;;;69.78;38.60;;;;;;;-2.58;100.00;98774.53;5053113;28;20148;-79
2021/12/09 07:18:48;;;;;;;81.80;46.90;;;;;;;-2.65;100.00;98760.19;5052961;28;20025;-79
2021/12/09 07:21:13;;;;;;;80.40;40.50;;;;;;;-2.55;100.00;98781.34;5053069;28;20074;-80
2021/12/09 07:23:39;;;;;;;83.65;47.13;;;;;;;-2.57;100.00;98775.38;5052929;28;20032;-79
2021/12/09 07:26:04;;;;;;;89.00;51.53;;;;;;;-2.72;100.00;98760.22;5052850;28;20081;-79
2021/12/09 07:28:30;;;;;;;78.10;43.15;;;;;;;-2.63;100.00;98771.19;5053009;28;20380;-79
2021/12/09 07:30:55;;;;;;;92.22;49.15;;;;;;;-2.62;100.00;98772.03;5034740;28;20396;-79
2021/12/09 07:33:21;;;;;;;72.82;41.72;;;;;;;-2.65;100.00;98761.88;5052902;28;20071;-79
2021/12/09 07:35:46;;;;;;;91.88;50.08;;;;;;;-2.70;100.00;98753.41;5052526;28;20029;-79
2021/12/09 07:38:12;;;;;;;93.05;50.72;;;;;;;-2.70;100.00;98755.94;5052568;28;20025;-79
2021/12/09 07:40:38;;;;;;;76.60;44.10;;;;;;;-2.62;100.00;98761.84;5052894;28;20415;-79
2021/12/09 07:43:04;;;;;;;85.40;46.22;;;;;;;-2.68;100.00;98746.59;5052311;28;20032;-80
2021/12/09 07:45:31;;;;;;;86.68;48.92;;;;;;;-2.58;100.00;98756.69;5052441;28;20040;-79
2021/12/09 07:47:57;;;;;;;86.05;47.45;;;;;;;-2.69;100.00;98740.66;5052402;28;20427;-79
2021/12/09 07:50:28;;;;;;;106.97;59.92;;;;;;;-2.57;100.00;98760.97;5052497;28;20025;-79
2021/12/09 07:52:54;;;;;;;94.47;51.58;;;;;;;-2.55;100.00;98755.84;5052192;28;20025;-79
2021/12/09 07:55:22;;;;;;;89.00;46.88;;;;;;;-2.76;100.00;98731.38;5052315;28;20044;-79
2021/12/09 07:57:48;;;;;;;102.82;53.55;;;;;;;-2.64;100.00;98733.81;5034197;28;20384;-79
2021/12/09 08:00:22;;;;;;;96.03;50.33;;;;;;;-2.75;100.00;98720.31;5052328;28;20035;-79
2021/12/09 08:02:49;;;;;;;79.22;44.65;;;;;;;-2.74;100.00;98718.59;5052162;28;20036;-80
2021/12/09 08:05:16;;;;;;;87.47;47.33;;;;;;;-2.64;100.00;98743.16;5052048;28;20032;-80
2021/12/09 08:07:41;;;;;;;91.15;51.45;;;;;;;-2.64;100.00;98741.47;5052477;28;20021;-80
2021/12/09 08:10:09;;;;;;;92.80;52.40;;;;;;;-2.60;100.00;98753.31;5034230;28;20025;-79
2021/12/09 08:12:34;;;;;;;88.70;47.25;;;;;;;-2.57;100.00;98755.88;5034283;28;20059;-79
2021/12/09 08:15:00;;;;;;;98.43;52.78;;;;;;;-2.62;100.00;98747.38;5051951;28;20064;-79
2021/12/09 08:20:08;;;;;;;103.10;51.85;;;;;;;-2.61;100.00;98725.31;5051698;28;20029;-79
2021/12/09 08:22:34;;;;;;;98.73;52.53;;;;;;;-2.48;100.00;98738.78;5052052;28;20159;-79
2021/12/09 08:25:00;;;;;;;89.35;45.72;;;;;;;-2.40;100.00;98737.88;5051801;28;20031;-79
2021/12/09 08:27:26;;;;;;;92.00;50.25;;;;;;;-2.48;100.00;98723.50;5051964;28;20033;-80
2021/12/09 08:29:52;;;;;;;86.68;46.60;;;;;;;-2.54;100.00;98727.78;5051650;28;20017;-78
2021/12/09 08:32:17;;;;;;;92.88;49.60;;;;;;;-2.41;100.00;98738.72;5051760;28;20020;-78
2021/12/09 08:34:43;;;;;;;91.95;49.85;;;;;;;-2.39;100.00;98742.09;5051949;28;20029;-78
2021/12/09 08:37:08;;;;;;;109.03;57.40;;;;;;;-2.29;100.00;98753.06;5051572;28;20025;-78
2021/12/09 08:39:34;;;;;;;84.03;45.92;;;;;;;-2.28;100.00;98750.47;5051841;28;20037;-78
2021/12/09 08:42:00;;;;;;;86.50;47.05;;;;;;;-2.23;100.00;98760.66;5033622;28;20025;-78
2021/12/09 08:44:25;;;;;;;89.43;46.47;;;;;;;-2.26;100.00;98756.44;5000195;28;20040;-77
2021/12/09 08:46:51;;;;;;;97.10;49.83;;;;;;;-2.31;100.00;98742.88;5051391;28;20025;-78
2021/12/09 08:49:16;;;;;;;85.35;44.63;;;;;;;-2.19;100.00;98756.34;5052233;28;20029;-77
2021/12/09 08:51:42;;;;;;;94.55;51.40;;;;;;;-2.23;100.00;98740.25;5051736;28;20025;-78
2021/12/09 08:54:08;;;;;;;88.45;47.53;;;;;;;-2.13;100.00;98753.75;5051467;28;20040;-78
2021/12/09 08:56:34;;;;;;;92.50;49.40;;;;;;;-2.25;100.00;98744.50;5054482;28;20437;-78
2021/12/09 08:59:02;;;;;;;100.80;53.65;;;;;;;-2.13;100.00;98758.84;5055572;28;20476;-78
2021/12/09 09:01:28;;;;;;;88.45;48.15;;;;;;;-2.15;100.00;98750.34;5055585;28;20427;-78
2021/12/09 09:03:53;;;;;;;84.65;46.42;;;;;;;-2.15;100.00;98742.72;5059644;28;20032;-78
2021/12/09 09:06:19;;;;;;;101.30;53.10;;;;;;;-1.99;100.00;98758.72;5049139;28;20024;-78
2021/12/09 09:08:44;;;;;;;96.60;52.22;;;;;;;-2.03;100.00;98750.25;5061327;28;20468;-78
2021/12/09 09:11:10;;;;;;;89.00;51.28;;;;;;;-2.13;100.00;98724.00;5037758;28;20029;-75
2021/12/09 09:13:35;;;;;;;85.70;45.60;;;;;;;-1.88;100.00;98744.16;5074171;28;20025;-78
2021/12/09 09:16:02;;;;;;;92.72;50.92;;;;;;;-1.83;100.00;98742.38;5074712;28;20457;-76
2021/12/09 09:18:27;;;;;;;98.28;52.08;;;;;;;-1.90;100.00;98739.03;5075358;28;20029;-77
2021/12/09 09:20:53;;;;;;;88.95;48.10;;;;;;;-1.99;100.00;98712.78;5066630;28;20099;-76
2021/12/09 09:23:20;;;;;;;84.88;47.65;;;;;;;-1.77;100.00;98735.50;5055339;28;20024;-76
2021/12/09 09:25:47;;;;;;;95.50;51.03;;;;;;;-1.76;100.00;98718.47;5055085;28;20053;-76
2021/12/09 09:28:13;;;;;;;105.85;50.53;;;;;;;-1.69;100.00;98725.19;5037299;28;20032;-76
2021/12/09 09:30:45;;;;;;;98.95;54.17;;;;;;;-1.76;100.00;98713.38;5055045;28;20036;-77
2021/12/09 09:33:13;;;;;;;90.10;50.20;;;;;;;-1.74;100.00;98709.09;5055216;28;20028;-77
2021/12/09 09:35:40;;;;;;;104.03;53.75;;;;;;;-1.57;100.00;98716.53;5054854;28;20460;-77
2021/12/09 09:38:06;;;;;;;97.20;52.25;;;;;;;-1.60;100.00;98724.22;5064442;28;20025;-77
2021/12/09 09:40:49;;;;;;;89.03;48.35;;;;;;;-1.63;100.00;98742.16;5056956;28;20417;-77
2021/12/09 09:43:29;;;;;;;93.55;49.58;;;;;;;-1.65;100.00;98747.25;5074827;28;20033;-77
2021/12/09 09:45:57;;;;;;;91.45;47.42;;;;;;;-1.64;100.00;98759.19;5058845;28;20067;-77
2021/12/09 09:48:24;;;;;;;85.18;47.10;;;;;;;-1.66;100.00;98737.91;5075020;28;20032;-77
2021/12/09 09:50:50;;;;;;;97.28;51.95;;;;;;;-1.64;100.00;98740.47;5074479;28;20162;-77
2021/12/09 09:53:17;;;;;;;94.43;50.60;;;;;;;-1.62;100.00;98738.72;5074648;28;20025;-76
2021/12/09 09:55:46;;;;;;;91.70;51.50;;;;;;;-1.72;100.00;98724.41;5074476;28;20051;-77
2021/12/09 09:58:12;;;;;;;91.63;48.25;;;;;;;-1.69;100.00;98714.97;5071746;28;20465;-77
2021/12/09 10:00:38;;;;;;;97.40;52.20;;;;;;;-1.66;100.00;98711.53;5018095;28;20093;-77
2021/12/09 10:03:09;;;;;;;94.63;49.38;;;;;;;-1.51;100.00;98719.03;5074439;28;20361;-77
2021/12/09 10:05:37;;;;;;;88.28;50.10;;;;;;;-1.68;100.00;98701.38;5070642;28;20028;-77
2021/12/09 10:08:04;;;;;;;99.82;56.05;;;;;;;-1.58;100.00;98737.81;5074119;28;20028;-77
2021/12/09 10:10:29;;;;;;;96.25;51.38;;;;;;;-1.57;100.00;98742.91;5074518;28;20024;-77
2021/12/09 10:13:01;;;;;;;456.63;282.60;;;;;;;-1.64;100.00;98704.72;5058642;28;20388;-77
2021/12/09 10:15:44;;;;;;;91.03;50.90;;;;;;;-1.47;100.00;98736.00;5054289;28;20029;-77
2021/12/09 10:18:11;;;;;;;106.85;57.85;;;;;;;-1.58;100.00;98712.28;5054629;28;20041;-77
2021/12/09 10:20:53;;;;;;;95.28;55.50;;;;;;;-1.46;100.00;98727.47;5054090;28;20047;-76
2021/12/09 10:23:30;;;;;;;95.20;52.17;;;;;;;-1.52;100.00;98719.88;5054362;28;20029;-77
2021/12/09 10:26:19;;;;;;;114.18;63.85;;;;;;;-1.43;100.00;98724.00;5053934;28;20029;-77
2021/12/09 10:28:52;;;;;;;137.02;77.80;;;;;;;-1.50;100.00;98718.16;5053865;28;20644;-77
2021/12/09 10:31:27;;;;;;;122.68;66.38;;;;;;;-1.44;100.00;98724.88;5053837;28;20033;-77
2021/12/09 10:34:00;;;;;;;94.18;51.90;;;;;;;-1.46;100.00;98730.00;5035648;28;20025;-77
2021/12/09 10:36:47;;;;;;;100.68;55.05;;;;;;;-1.43;100.00;98726.56;5054058;28;20086;-77
2021/12/09 10:39:36;;;;;;;97.93;50.97;;;;;;;-1.39;100.00;98723.09;5053859;28;20584;-77
2021/12/09 10:42:06;;;;;;;93.15;52.65;;;;;;;-1.27;100.00;98708.44;5053741;28;20056;-77
2021/12/09 10:44:41;;;;;;;108.07;60.38;;;;;;;-1.35;100.00;98699.19;5053745;28;20475;-78
2021/12/09 10:47:16;;;;;;;100.35;52.50;;;;;;;-1.34;100.00;98706.88;5053249;28;20484;-78
2021/12/09 10:50:02;;;;;;;100.50;52.97;;;;;;;-1.21;100.00;98722.03;5053508;28;20029;-77
2021/12/09 10:52:39;;;;;;;91.28;52.42;;;;;;;-1.31;100.00;98695.75;5053853;28;20025;-77
2021/12/09 10:55:13;;;;;;;102.10;51.92;;;;;;;-1.17;100.00;98710.91;5053522;28;20025;-78
2021/12/09 10:57:39;;;;;;;102.18;54.78;;;;;;;-1.25;100.00;98685.44;5053459;28;20658;-77
2021/12/09 11:00:36;;;;;;;86.38;47.08;;;;;;;-1.16;100.00;98695.53;5053297;28;20113;-77
2021/12/09 11:03:10;;;;;;;92.28;50.85;;;;;;;-1.13;100.00;98690.38;4952925;29;20043;-78
2021/12/09 11:05:40;;;;;;;103.95;58.35;;;;;;;-1.29;100.00;98663.38;4936971;29;20030;-78
2021/12/09 11:08:43;;;;;;;97.63;54.00;;;;;;;-1.36;100.00;98661.75;4952630;29;20046;-78
2021/12/09 11:11:35;;;;;;;95.75;50.65;;;;;;;-1.27;100.00;98674.41;4896639;29;20045;-77
2021/12/09 11:14:03;;;;;;;99.28;51.90;;;;;;;-1.22;100.00;98676.88;4876819;29;20747;-78
2021/12/09 11:16:39;;;;;;;112.57;62.90;;;;;;;-1.32;100.00;98656.59;4876988;29;20472;-77